Time;durP1;ratioP1;P1;durP2;ratioP2;P2;SDS_P1;SDS_P2;PMS_P1;PMS_P2;Temp;Humidity;BMP_temperature;BMP_pressure;BME280_temperature;BME280_humidity;BME280_pressure;Samples;Min_cycle;Max_cycle;Signal;HPM_P1;HPM_P2
2022/07/11 07:55:43;;;;;;;2.63;1.48;;;28.50;99.00;;;;;;4652785;23;20700;-68
2022/07/11 07:58:10;;;;;;;3.10;1.80;;;28.90;98.30;;;;;;4910167;29;20564;-68
2022/07/11 08:03:21;;;;;;;2.78;1.40;;;28.30;99.00;;;;;;4896826;29;20240;-68
2022/07/11 08:05:48;;;;;;;4.38;1.75;;;27.50;99.80;;;;;;4900539;29;20214;-67
2022/07/11 08:08:15;;;;;;;2.65;1.40;;;27.60;99.50;;;;;;4917892;29;20686;-72
2022/07/11 08:10:43;;;;;;;2.38;1.10;;;27.30;99.90;;;;;;4915646;29;20224;-68
2022/07/11 08:13:10;;;;;;;2.63;1.35;;;27.50;99.90;;;;;;4917243;29;20337;-64
2022/07/11 08:15:36;;;;;;;1.85;1.42;;;28.50;99.30;;;;;;4918228;29;20202;-68
2022/07/11 08:18:03;;;;;;;2.55;1.58;;;29.20;98.20;;;;;;4917688;29;20560;-66
2022/07/11 08:20:30;;;;;;;4.50;1.85;;;30.10;96.90;;;;;;4906064;29;20313;-70
2022/07/11 08:23:00;;;;;;;2.83;1.20;;;30.40;96.40;;;;;;4900081;29;20752;-66
2022/07/11 08:25:27;;;;;;;2.78;1.00;;;30.20;96.80;;;;;;4900014;29;20221;-70
2022/07/11 08:27:55;;;;;;;2.92;1.30;;;30.20;97.30;;;;;;4913823;29;20217;-70
2022/07/11 08:30:22;;;;;;;2.30;1.33;;;30.50;96.10;;;;;;4906697;29;20215;-71
2022/07/11 08:32:49;;;;;;;2.78;1.35;;;30.70;96.30;;;;;;4899516;29;20704;-71
2022/07/11 08:35:16;;;;;;;2.85;1.02;;;30.70;95.70;;;;;;4899352;29;20297;-68
2022/07/11 08:37:45;;;;;;;5.75;0.98;;;30.70;95.70;;;;;;4912389;29;20209;-67
2022/07/11 08:40:12;;;;;;;1.80;0.98;;;30.80;94.90;;;;;;4907278;29;20700;-72
2022/07/11 08:42:42;;;;;;;3.20;1.17;;;30.80;95.60;;;;;;4898972;29;20784;-69
2022/07/11 08:45:12;;;;;;;2.83;1.00;;;29.90;95.10;;;;;;4899071;29;20232;-74
2022/07/11 08:47:39;;;;;;;2.03;1.30;;;29.30;96.50;;;;;;4911216;29;20301;-72
2022/07/11 08:50:07;;;;;;;2.40;1.40;;;28.90;96.80;;;;;;4909627;29;20206;-71
2022/07/11 08:52:35;;;;;;;2.20;1.40;;;27.90;97.90;;;;;;4900821;29;20244;-71
2022/07/11 08:55:06;;;;;;;5.18;1.27;;;28.30;97.90;;;;;;4900545;29;20224;-73
2022/07/11 08:57:33;;;;;;;2.22;1.48;;;28.50;97.30;;;;;;4900417;29;20214;-74
2022/07/11 09:00:01;;;;;;;1.58;1.02;;;28.60;97.70;;;;;;4900162;29;20326;-70
2022/07/11 09:02:30;;;;;;;1.75;1.30;;;28.80;97.10;;;;;;4900237;29;20269;-72
2022/07/11 09:04:57;;;;;;;2.28;1.40;;;27.90;97.70;;;;;;4909370;29;20205;-71
2022/07/11 09:07:24;;;;;;;2.25;1.40;;;27.40;99.10;;;;;;4908806;29;20688;-73
2022/07/11 09:09:51;;;;;;;1.90;1.30;;;27.70;98.70;;;;;;4899694;29;20214;-71
2022/07/11 09:12:19;;;;;;;2.47;1.77;;;27.90;98.50;;;;;;4900257;29;20230;-76
2022/07/11 09:14:48;;;;;;;2.45;1.52;;;27.90;98.40;;;;;;4899657;29;20214;-74
2022/07/11 09:17:15;;;;;;;2.53;1.40;;;28.10;98.70;;;;;;4900240;29;20570;-72
2022/07/11 09:19:46;;;;;;;2.58;1.40;;;28.80;98.20;;;;;;4900246;29;20229;-75
2022/07/11 09:27:47;;;;;;;2.08;1.20;;;29.00;97.70;;;;;;4900031;29;20209;-73
2022/07/11 09:30:23;;;;;;;2.45;1.50;;;29.90;97.20;;;;;;4900004;29;20214;-73
2022/07/11 09:32:55;;;;;;;3.20;1.58;;;29.90;96.80;;;;;;4899525;29;20230;-71
2022/07/11 09:35:24;;;;;;;4.22;1.40;;;30.30;97.10;;;;;;4900015;29;20222;-69
2022/07/11 09:37:50;;;;;;;1.95;1.40;;;29.70;96.40;;;;;;4899985;29;20304;-70
2022/07/11 09:40:18;;;;;;;2.55;1.42;;;29.50;96.50;;;;;;4900390;29;20214;-69
2022/07/11 09:42:49;;;;;;;1.50;1.40;;;28.80;98.30;;;;;;4899835;29;20335;-74
2022/07/11 09:45:17;;;;;;;2.20;1.20;;;28.70;98.90;;;;;;4905026;29;20222;-74
2022/07/11 09:47:46;;;;;;;2.13;1.30;;;29.00;97.80;;;;;;4905741;29;20207;-72
2022/07/11 09:50:13;;;;;;;2.55;1.30;;;29.00;97.40;;;;;;4908893;29;20301;-75
2022/07/11 09:52:43;;;;;;;1.98;1.55;;;28.30;97.90;;;;;;4901872;29;20696;-73
2022/07/11 09:55:10;;;;;;;3.00;1.20;;;28.40;97.80;;;;;;4901551;29;20677;-76
2022/07/11 09:57:39;;;;;;;2.03;1.35;;;28.30;99.00;;;;;;4901162;29;20217;-69
2022/07/11 10:00:08;;;;;;;2.33;1.52;;;27.60;99.30;;;;;;4900374;29;20202;-74
2022/07/11 10:02:35;;;;;;;1.85;1.35;;;27.40;99.10;;;;;;4911229;29;20282;-69
2022/07/11 10:05:03;;;;;;;1.40;1.27;;;27.70;98.90;;;;;;4923433;29;20230;-72
2022/07/11 10:07:30;;;;;;;2.00;1.40;;;27.70;99.10;;;;;;4928004;29;20285;-70
2022/07/11 10:09:59;;;;;;;1.60;1.50;;;27.20;99.80;;;;;;4913442;29;20207;-70
2022/07/11 10:12:29;;;;;;;2.95;1.75;;;26.70;99.90;;;;;;4899125;29;20709;-78
2022/07/11 10:14:57;;;;;;;1.95;1.58;;;26.50;99.90;;;;;;4899560;29;20665;-74
2022/07/11 10:17:29;;;;;;;2.42;1.60;;;26.30;99.90;;;;;;4899027;29;20277;-76
2022/07/11 10:20:03;;;;;;;3.08;1.77;;;26.40;99.90;;;;;;4898821;29;20741;-76
2022/07/11 10:22:34;;;;;;;2.83;1.70;;;26.30;99.90;;;;;;4898605;29;20575;-76
2022/07/11 10:25:12;;;;;;;2.95;2.45;;;25.90;99.90;;;;;;4898765;29;20218;-77
2022/07/11 10:27:52;;;;;;;2.40;1.90;;;25.90;99.90;;;;;;4898456;29;20273;-75
2022/07/11 10:30:47;;;;;;;2.70;1.80;;;25.70;99.90;;;;;;4898861;29;20262;-75
2022/07/11 10:33:15;;;;;;;2.30;1.67;;;25.90;99.90;;;;;;4898825;29;20702;-75
2022/07/11 10:35:44;;;;;;;2.03;1.50;;;26.10;99.90;;;;;;4898976;29;20211;-75
2022/07/11 10:38:11;;;;;;;2.15;1.60;;;26.10;99.90;;;;;;4898739;29;20305;-75
2022/07/11 10:40:49;;;;;;;3.20;1.27;;;26.20;99.90;;;;;;4898775;29;20765;-76
2022/07/11 10:43:33;;;;;;;3.22;1.65;;;25.90;99.90;;;;;;4899009;29;20237;-70
2022/07/11 10:46:01;;;;;;;5.65;1.80;;;25.90;99.90;;;;;;4898229;29;20813;-76
2022/07/11 10:48:29;;;;;;;1.63;1.40;;;26.00;99.90;;;;;;4897808;29;20211;-71
2022/07/11 10:51:24;;;;;;;3.38;1.52;;;26.30;99.90;;;;;;4897947;29;20210;-70
2022/07/11 10:53:53;;;;;;;1.95;1.50;;;26.60;99.90;;;;;;4898324;29;20249;-79
2022/07/11 10:56:47;;;;;;;3.13;1.40;;;26.90;99.90;;;;;;4897711;29;20307;-67
2022/07/11 10:59:16;;;;;;;2.80;1.45;;;26.70;99.90;;;;;;4903687;29;20205;-72
2022/07/11 11:02:01;;;;;;;2.88;1.65;;;26.10;99.90;;;;;;4914225;29;20554;-71
2022/07/11 11:04:45;;;;;;;3.47;1.65;;;26.10;99.90;;;;;;4914709;29;20239;-71
2022/07/11 11:07:31;;;;;;;2.15;1.30;;;26.10;99.90;;;;;;4914836;29;20665;-71
2022/07/11 11:09:59;;;;;;;3.67;1.70;;;26.00;99.90;;;;;;4914418;29;20732;-69
2022/07/11 11:13:04;;;;;;;3.22;1.60;;;25.90;99.90;;;;;;4907970;29;20232;-72
2022/07/11 11:15:39;;;;;;;3.60;1.67;;;26.10;99.90;;;;;;4915644;29;20657;-72
2022/07/11 11:18:35;;;;;;;3.42;1.60;;;26.10;99.90;;;;;;4915536;29;20205;-72
2022/07/11 11:21:21;;;;;;;1.58;1.48;;;26.20;99.90;;;;;;4910208;29;20642;-68
2022/07/11 11:24:10;;;;;;;2.28;1.92;;;26.10;99.90;;;;;;4896537;29;20573;-67
2022/07/11 11:26:46;;;;;;;3.38;2.30;;;26.20;99.90;;;;;;4897866;29;20218;-72
2022/07/11 11:29:18;;;;;;;4.30;1.77;;;26.20;99.90;;;;;;4906320;29;20288;-77
2022/07/11 11:31:50;;;;;;;2.42;1.92;;;26.20;99.90;;;;;;4904125;29;20210;-69
2022/07/11 11:34:18;;;;;;;3.10;2.00;;;26.00;99.90;;;;;;4896603;29;20210;-81
2022/07/11 11:36:52;;;;;;;3.58;2.17;;;25.80;99.90;;;;;;4896423;29;20657;-78
2022/07/11 11:39:23;;;;;;;2.83;2.20;;;25.80;99.90;;;;;;4906502;29;20264;-74
2022/07/11 11:41:50;;;;;;;4.13;2.40;;;25.60;99.90;;;;;;4903970;29;20240;-75
2022/07/11 11:44:17;;;;;;;3.90;3.10;;;25.60;99.90;;;;;;4896722;29;20238;-75
2022/07/11 11:46:47;;;;;;;4.63;3.30;;;25.60;99.90;;;;;;4896571;29;20210;-77
2022/07/11 11:49:14;;;;;;;3.42;2.72;;;25.80;99.90;;;;;;4897819;29;20215;-82
2022/07/11 11:51:43;;;;;;;4.35;2.50;;;25.70;99.90;;;;;;4897389;29;20250;-80
2022/07/11 11:54:11;;;;;;;3.30;2.60;;;25.70;99.90;;;;;;4897840;29;20220;-80
2022/07/11 11:56:40;;;;;;;4.30;2.58;;;25.40;99.90;;;;;;4898118;29;20317;-88
2022/07/11 11:59:09;;;;;;;3.65;2.75;;;25.10;99.90;;;;;;4898321;29;20289;-79
2022/07/11 12:01:38;;;;;;;3.88;2.90;;;25.00;99.90;;;;;;4897552;29;20670;-76
2022/07/11 12:04:08;;;;;;;4.47;2.80;;;25.10;99.90;;;;;;4897766;29;20245;-79
2022/07/11 12:06:38;;;;;;;3.90;3.00;;;25.40;99.90;;;;;;4907977;29;20202;-75
2022/07/11 12:09:06;;;;;;;3.70;3.03;;;25.20;99.90;;;;;;4899532;29;20206;-81
2022/07/11 12:11:35;;;;;;;4.10;3.00;;;24.80;99.90;;;;;;4897611;29;20297;-78
2022/07/11 12:14:04;;;;;;;3.50;2.70;;;24.60;99.90;;;;;;4897472;29;20282;-78
2022/07/11 12:16:41;;;;;;;4.35;2.60;;;24.60;99.90;;;;;;4912081;29;20260;-74
2022/07/11 12:19:12;;;;;;;3.42;2.30;;;24.90;99.90;;;;;;4933906;29;20228;-71
2022/07/11 12:21:40;;;;;;;6.18;3.08;;;25.20;99.90;;;;;;4913926;29;20214;-76
2022/07/11 12:24:11;;;;;;;4.90;2.60;;;25.30;99.90;;;;;;4896083;29;20234;-68
2022/07/11 12:26:39;;;;;;;4.40;2.97;;;25.20;99.90;;;;;;4908473;29;20213;-70
2022/07/11 12:29:11;;;;;;;4.80;2.72;;;25.00;99.90;;;;;;4914527;29;20237;-76
2022/07/11 12:31:43;;;;;;;3.70;2.50;;;25.00;99.90;;;;;;4905956;29;20229;-78
2022/07/11 12:34:12;;;;;;;3.88;2.65;;;25.10;99.90;;;;;;4897391;29;20210;-82
2022/07/11 12:36:38;;;;;;;3.42;2.17;;;25.30;99.90;;;;;;4896908;29;20304;-78
2022/07/11 12:39:05;;;;;;;3.58;2.20;;;25.40;99.90;;;;;;4897552;29;20210;-76
2022/07/11 12:41:33;;;;;;;4.47;2.03;;;25.40;99.90;;;;;;4896863;29;20211;-76
2022/07/11 12:46:47;;;;;;;3.03;2.22;;;25.70;99.90;;;;;;4897125;29;20229;-71
2022/07/11 12:49:16;;;;;;;4.70;2.85;;;25.60;99.90;;;;;;4896969;29;20266;-77
2022/07/11 12:51:44;;;;;;;3.20;2.22;;;25.80;99.90;;;;;;4900252;29;20217;-84
2022/07/11 12:54:14;;;;;;;2.65;1.90;;;25.60;99.90;;;;;;4900651;29;20504;-77
2022/07/11 12:56:42;;;;;;;3.55;1.90;;;25.60;99.90;;;;;;4900094;29;20214;-75
2022/07/11 12:59:21;;;;;;;1.92;1.35;;;25.80;99.90;;;;;;4900321;29;20220;-76
2022/07/11 13:02:03;;;;;;;2.03;1.70;;;25.80;99.90;;;;;;4900411;29;20213;-81
2022/07/11 13:04:33;;;;;;;2.45;1.63;;;25.80;99.90;;;;;;4899790;29;20672;-80
2022/07/11 13:10:04;;;;;;;3.30;1.80;;;25.80;99.90;;;;;;4919009;29;20268;-79
2022/07/11 13:12:31;;;;;;;4.57;1.88;;;25.80;99.90;;;;;;4902242;29;20230;-79
2022/07/11 13:15:10;;;;;;;2.17;1.50;;;25.50;99.90;;;;;;4900047;29;20215;-75
2022/07/11 13:17:38;;;;;;;2.20;1.35;;;25.50;99.90;;;;;;4900183;29;20214;-75
2022/07/11 13:20:16;;;;;;;2.20;1.73;;;25.60;99.90;;;;;;4900099;29;20733;-79
2022/07/11 13:22:43;;;;;;;2.00;1.45;;;25.90;99.90;;;;;;4900032;29;20321;-78
2022/07/11 13:25:21;;;;;;;2.05;1.35;;;26.10;99.90;;;;;;4900526;29;20330;-79
2022/07/11 13:27:49;;;;;;;1.70;1.42;;;26.30;99.90;;;;;;4900425;29;20214;-78
2022/07/11 13:30:17;;;;;;;1.42;1.13;;;26.30;99.90;;;;;;4899840;29;20214;-77
2022/07/11 13:32:45;;;;;;;1.75;1.48;;;26.40;99.90;;;;;;4900331;29;20253;-80
2022/07/11 13:35:14;;;;;;;4.00;1.40;;;26.20;99.90;;;;;;4900294;29;20210;-76
2022/07/11 13:37:41;;;;;;;2.67;1.75;;;26.00;99.90;;;;;;4900252;29;20232;-78
2022/07/11 13:40:11;;;;;;;3.83;1.88;;;26.00;99.90;;;;;;4899799;29;20215;-80
2022/07/11 13:42:40;;;;;;;2.35;1.60;;;26.00;99.90;;;;;;4899345;29;20230;-82
2022/07/11 13:45:09;;;;;;;3.30;2.00;;;25.90;99.90;;;;;;4899987;29;20242;-78
2022/07/11 13:47:36;;;;;;;2.13;1.60;;;25.80;99.90;;;;;;4899690;29;20220;-78
2022/07/11 13:50:04;;;;;;;2.50;1.70;;;25.90;99.90;;;;;;4905881;29;20226;-76
2022/07/11 13:52:32;;;;;;;3.08;1.98;;;25.80;99.90;;;;;;4907951;29;20235;-75
2022/07/11 13:54:59;;;;;;;3.35;2.13;;;26.00;99.90;;;;;;4905098;29;20214;-78
2022/07/11 13:57:26;;;;;;;3.53;2.30;;;26.10;99.90;;;;;;4901108;29;20210;-80
2022/07/11 13:59:53;;;;;;;2.72;2.08;;;26.20;99.90;;;;;;4900396;29;20211;-81
2022/07/11 14:02:20;;;;;;;3.58;2.13;;;26.00;99.90;;;;;;4921852;23;20241;-74
2022/07/11 14:04:47;;;;;;;3.03;1.80;;;26.00;99.90;;;;;;4918137;29;20237;-78
2022/07/11 14:07:14;;;;;;;3.50;2.00;;;25.90;99.90;;;;;;4917497;29;20205;-72
2022/07/11 14:09:42;;;;;;;3.17;1.90;;;26.00;99.90;;;;;;4918152;29;20209;-74
2022/07/11 14:12:10;;;;;;;2.90;1.80;;;26.30;99.90;;;;;;4917727;29;20301;-71
2022/07/11 14:14:37;;;;;;;2.42;1.70;;;26.40;99.90;;;;;;4918677;29;20209;-75
2022/07/11 14:17:05;;;;;;;2.42;1.90;;;26.40;99.90;;;;;;4918152;29;20212;-76
2022/07/11 14:19:32;;;;;;;7.05;2.63;;;26.20;99.90;;;;;;4918077;29;20217;-74
2022/07/11 14:21:59;;;;;;;2.03;1.70;;;26.30;99.90;;;;;;4917875;29;20233;-70
2022/07/11 14:24:27;;;;;;;3.78;2.20;;;26.20;99.90;;;;;;4917738;29;20709;-70
2022/07/11 14:26:56;;;;;;;3.25;2.10;;;26.30;99.90;;;;;;4918242;29;20214;-74
2022/07/11 14:29:23;;;;;;;3.08;2.33;;;26.30;99.90;;;;;;4917765;29;20569;-75
2022/07/11 14:31:52;;;;;;;4.28;2.30;;;26.00;99.90;;;;;;4917304;29;20216;-71
2022/07/11 14:34:19;;;;;;;2.63;2.10;;;25.40;99.90;;;;;;4917840;29;20209;-75
2022/07/11 14:36:47;;;;;;;3.95;2.47;;;25.20;99.90;;;;;;4917635;29;20206;-71
2022/07/11 14:39:14;;;;;;;3.53;2.30;;;25.20;99.90;;;;;;4917359;29;20657;-76
2022/07/11 14:41:41;;;;;;;2.90;2.30;;;25.50;99.90;;;;;;4917236;29;20213;-75
2022/07/11 14:44:09;;;;;;;3.30;2.38;;;25.50;99.90;;;;;;4917262;29;20213;-71
2022/07/11 14:46:36;;;;;;;3.03;2.30;;;25.70;99.90;;;;;;4917474;29;20541;-70
2022/07/11 14:49:05;;;;;;;3.53;2.30;;;25.70;99.90;;;;;;4917561;29;20304;-74
2022/07/11 14:51:32;;;;;;;4.25;2.47;;;25.50;99.90;;;;;;4917355;29;20218;-76
2022/07/11 14:53:59;;;;;;;2.85;2.15;;;25.70;99.90;;;;;;4917509;29;20216;-74
2022/07/11 14:56:25;;;;;;;2.40;1.90;;;25.70;99.90;;;;;;4916947;29;20268;-73
2022/07/11 14:58:52;;;;;;;2.28;1.77;;;25.60;99.90;;;;;;4917426;29;20313;-77
2022/07/11 15:01:20;;;;;;;3.20;2.25;;;25.80;99.90;;;;;;4917163;29;20225;-76
2022/07/11 15:03:47;;;;;;;2.40;1.98;;;25.90;99.90;;;;;;4917216;29;20229;-71
2022/07/11 15:06:16;;;;;;;3.88;2.47;;;25.60;99.90;;;;;;4916757;29;20241;-76
2022/07/11 15:14:13;;;;;;;4.88;2.15;;;25.90;99.90;;;;;;4916348;29;20208;-76
2022/07/11 15:16:41;;;;;;;2.45;2.00;;;25.80;99.90;;;;;;4917154;29;20272;-77
2022/07/11 15:19:09;;;;;;;3.75;2.30;;;25.70;99.90;;;;;;4917318;29;20205;-76
2022/07/11 15:21:36;;;;;;;2.50;2.00;;;25.80;99.90;;;;;;4916955;29;20574;-75
2022/07/11 15:24:04;;;;;;;4.78;2.30;;;25.80;99.90;;;;;;4917145;29;20221;-72
2022/07/11 15:26:31;;;;;;;2.88;2.22;;;25.70;99.90;;;;;;4917092;29;20214;-77
2022/07/11 15:28:57;;;;;;;2.13;1.83;;;25.70;99.90;;;;;;4916972;29;20229;-74
2022/07/11 15:31:24;;;;;;;3.20;2.10;;;25.70;99.90;;;;;;4916992;29;20672;-75
2022/07/11 15:33:52;;;;;;;2.45;2.05;;;25.70;99.90;;;;;;4916980;29;20234;-77
2022/07/11 15:36:20;;;;;;;2.13;1.70;;;25.70;99.90;;;;;;4917045;29;20256;-78
2022/07/11 15:38:48;;;;;;;2.45;1.85;;;25.70;99.90;;;;;;4917096;29;20209;-77
2022/07/11 15:41:15;;;;;;;3.90;2.00;;;25.70;99.90;;;;;;4916835;29;20673;-76
2022/07/11 15:43:43;;;;;;;2.15;1.60;;;25.60;99.90;;;;;;4916843;29;20240;-78
2022/07/11 15:46:10;;;;;;;3.70;2.10;;;25.60;99.90;;;;;;4916818;29;20237;-77
2022/07/11 15:48:38;;;;;;;2.70;1.92;;;25.60;99.90;;;;;;4917052;29;20209;-74
2022/07/11 15:51:06;;;;;;;1.90;1.50;;;25.50;99.90;;;;;;4917373;29;20214;-75
2022/07/11 15:53:33;;;;;;;3.05;1.90;;;25.70;99.90;;;;;;4916570;29;20240;-72
2022/07/11 15:56:03;;;;;;;2.67;1.67;;;25.80;99.90;;;;;;4916916;29;20209;-77
2022/07/11 15:58:32;;;;;;;2.20;1.92;;;25.70;99.90;;;;;;4916671;29;20214;-74
2022/07/11 16:00:59;;;;;;;2.38;1.77;;;25.50;99.90;;;;;;4916814;29;20213;-71
2022/07/11 16:03:26;;;;;;;2.22;1.73;;;25.50;99.90;;;;;;4916711;29;20237;-78
2022/07/11 16:05:53;;;;;;;2.13;1.90;;;25.60;99.90;;;;;;4916472;29;20604;-73
2022/07/11 16:08:21;;;;;;;2.22;1.90;;;25.50;99.90;;;;;;4916531;29;20216;-74
2022/07/11 16:10:49;;;;;;;2.42;1.90;;;25.60;99.90;;;;;;4916467;29;20632;-73
2022/07/11 16:13:16;;;;;;;6.10;2.03;;;25.60;99.90;;;;;;4916640;29;20229;-74
2022/07/11 16:15:44;;;;;;;2.45;1.70;;;25.60;99.90;;;;;;4916349;29;20228;-75
2022/07/11 16:18:12;;;;;;;3.17;1.45;;;25.60;99.70;;;;;;4916474;29;20262;-72
2022/07/11 16:20:40;;;;;;;2.05;1.40;;;25.70;99.00;;;;;;4916352;29;20265;-73
2022/07/11 16:23:07;;;;;;;1.92;1.55;;;25.60;99.20;;;;;;4916387;29;20226;-71
2022/07/11 16:25:35;;;;;;;1.60;1.10;;;25.70;99.40;;;;;;4918958;29;20245;-73
2022/07/11 16:28:02;;;;;;;3.30;1.70;;;25.70;98.60;;;;;;4919513;29;20681;-72
2022/07/11 16:30:32;;;;;;;1.98;1.63;;;25.80;99.90;;;;;;4919715;29;20305;-75
2022/07/11 16:32:59;;;;;;;2.95;1.55;;;25.80;99.90;;;;;;4914876;29;20234;-72
2022/07/11 16:35:26;;;;;;;1.92;1.67;;;25.50;99.90;;;;;;4918666;29;20312;-72
2022/07/11 16:37:53;;;;;;;1.95;1.75;;;25.20;99.90;;;;;;4907361;29;20222;-78
2022/07/11 16:43:22;;;;;;;1.77;1.50;;;25.20;99.90;;;;;;4917637;29;20296;-69
2022/07/11 16:45:50;;;;;;;2.10;1.50;;;25.20;99.90;;;;;;4918066;29;20332;-70
2022/07/11 16:48:17;;;;;;;3.60;1.58;;;25.20;99.90;;;;;;4917945;29;20272;-69
2022/07/11 16:50:45;;;;;;;2.08;1.30;;;25.20;99.90;;;;;;4901493;29;20221;-71
2022/07/11 16:53:12;;;;;;;1.55;1.30;;;25.30;99.60;;;;;;4917769;29;20276;-74
2022/07/11 16:55:39;;;;;;;2.25;1.50;;;25.20;99.40;;;;;;4917669;29;20210;-75
2022/07/11 16:58:08;;;;;;;1.75;1.40;;;25.20;99.90;;;;;;4918102;29;20213;-70
2022/07/11 17:00:35;;;;;;;2.47;1.58;;;25.20;99.90;;;;;;4918249;29;20213;-70
2022/07/11 17:03:04;;;;;;;1.95;1.48;;;25.10;99.90;;;;;;4922886;29;20232;-75
2022/07/11 17:05:31;;;;;;;2.22;1.67;;;25.20;99.90;;;;;;4936938;29;20237;-83
2022/07/11 17:10:42;;;;;;;2.35;1.48;;;25.10;99.90;;;;;;4918089;29;20224;-73
2022/07/11 17:13:11;;;;;;;3.13;1.67;;;25.20;99.90;;;;;;4918026;29;20229;-73
2022/07/11 17:15:37;;;;;;;2.10;1.40;;;25.20;99.90;;;;;;4919120;29;20216;-78
2022/07/11 17:18:04;;;;;;;1.88;1.50;;;25.20;99.90;;;;;;4919355;29;20584;-75
2022/07/11 17:20:31;;;;;;;3.45;1.80;;;25.20;99.90;;;;;;4919106;29;20296;-74
2022/07/11 17:22:58;;;;;;;1.90;1.50;;;25.00;99.90;;;;;;4918795;29;20242;-77
2022/07/11 17:25:25;;;;;;;1.95;1.77;;;25.00;99.90;;;;;;4918496;29;20242;-73
2022/07/11 17:27:52;;;;;;;2.15;1.58;;;25.00;99.90;;;;;;4908558;29;20565;-69
2022/07/11 17:30:20;;;;;;;3.75;1.75;;;24.80;99.90;;;;;;4905572;29;20210;-69
2022/07/11 17:32:47;;;;;;;1.88;1.50;;;24.80;99.90;;;;;;4912752;29;20225;-69
2022/07/11 17:35:15;;;;;;;2.45;1.45;;;24.80;99.90;;;;;;4910850;29;20298;-69
2022/07/11 17:37:43;;;;;;;2.28;1.70;;;24.70;99.90;;;;;;4913434;29;20209;-69
2022/07/11 17:40:10;;;;;;;2.28;1.50;;;24.90;99.90;;;;;;4910876;29;20216;-69
2022/07/11 17:42:37;;;;;;;2.25;1.77;;;24.80;99.90;;;;;;4903642;29;20270;-70
2022/07/11 17:45:04;;;;;;;3.42;1.40;;;24.60;99.90;;;;;;4903035;29;20794;-69
2022/07/11 17:47:33;;;;;;;1.67;1.58;;;24.80;99.80;;;;;;4912588;29;20217;-69
2022/07/11 17:50:00;;;;;;;2.95;1.63;;;24.90;99.80;;;;;;4909173;29;20675;-70
2022/07/11 17:52:27;;;;;;;2.35;1.90;;;24.80;99.90;;;;;;4909619;29;20239;-69
2022/07/11 17:54:53;;;;;;;5.55;3.40;;;24.90;99.90;;;;;;4912211;29;20296;-69
2022/07/11 17:57:20;;;;;;;3.42;2.65;;;25.00;99.90;;;;;;4908596;29;20241;-69
2022/07/11 17:59:47;;;;;;;2.83;1.73;;;25.10;99.90;;;;;;4908718;29;20218;-69
2022/07/11 18:02:15;;;;;;;1.92;1.70;;;25.10;99.40;;;;;;4908152;29;20245;-69
2022/07/11 18:04:43;;;;;;;3.30;1.90;;;24.90;99.20;;;;;;4907201;29;20841;-69
2022/07/11 18:07:10;;;;;;;1.90;1.50;;;24.90;99.20;;;;;;4909025;29;20233;-69
2022/07/11 18:09:37;;;;;;;2.22;1.52;;;24.90;99.80;;;;;;4906627;29;20221;-69
2022/07/11 18:12:04;;;;;;;1.70;1.60;;;24.80;99.70;;;;;;4907199;29;20233;-70
2022/07/11 18:14:31;;;;;;;1.63;1.38;;;24.70;99.90;;;;;;4907150;29;20210;-69
2022/07/11 18:16:59;;;;;;;1.70;1.60;;;24.70;99.90;;;;;;4907352;29;20324;-69
2022/07/11 18:19:26;;;;;;;2.13;1.50;;;24.70;99.90;;;;;;4908788;29;20627;-69
2022/07/11 18:21:54;;;;;;;2.00;1.60;;;24.70;99.90;;;;;;4907287;29;20654;-69
2022/07/11 18:24:21;;;;;;;2.17;1.20;;;24.50;99.90;;;;;;4907700;29;20222;-72
2022/07/11 18:26:48;;;;;;;1.92;1.70;;;24.70;99.90;;;;;;4909194;29;20246;-74
2022/07/11 18:29:15;;;;;;;2.30;1.65;;;24.60;99.90;;;;;;4905316;29;20224;-72
2022/07/11 18:31:42;;;;;;;2.88;1.30;;;24.60;99.90;;;;;;4911508;29;20217;-75
2022/07/11 18:34:09;;;;;;;1.92;1.33;;;24.60;99.90;;;;;;4906951;29;20213;-73
2022/07/11 18:36:35;;;;;;;4.85;1.48;;;24.70;99.90;;;;;;4916770;29;20297;-73
2022/07/11 18:41:49;;;;;;;1.83;1.17;;;24.40;99.90;;;;;;4914554;29;20400;-71
2022/07/11 18:44:15;;;;;;;1.45;1.20;;;24.30;99.90;;;;;;4906947;29;20221;-79
2022/07/11 18:46:42;;;;;;;1.70;1.33;;;24.40;99.90;;;;;;4912810;29;20329;-72
2022/07/11 18:49:09;;;;;;;1.30;1.05;;;24.30;99.90;;;;;;4911676;29;20673;-71
2022/07/11 18:51:36;;;;;;;1.65;1.40;;;24.40;99.90;;;;;;4912989;29;20325;-72
2022/07/11 18:54:04;;;;;;;5.60;1.33;;;24.20;99.90;;;;;;4909601;29;20292;-74
2022/07/11 18:56:32;;;;;;;1.33;1.17;;;24.20;99.90;;;;;;4900321;29;20210;-75
2022/07/11 18:58:58;;;;;;;2.65;1.33;;;24.30;99.90;;;;;;4897438;29;20210;-73
2022/07/11 19:01:25;;;;;;;1.63;1.30;;;24.10;99.90;;;;;;4898282;29;20222;-73
2022/07/11 19:03:52;;;;;;;1.20;1.05;;;24.00;99.90;;;;;;4909599;29;20225;-80
2022/07/11 19:06:19;;;;;;;2.50;1.88;;;23.80;99.90;;;;;;4935936;29;20244;-76
2022/07/11 19:08:46;;;;;;;1.20;1.10;;;23.70;99.90;;;;;;4936183;29;20205;-76
2022/07/11 19:11:14;;;;;;;1.95;1.48;;;23.60;99.90;;;;;;4936121;29;20304;-71
2022/07/11 19:13:41;;;;;;;1.35;1.25;;;23.50;99.90;;;;;;4931707;29;20225;-74
2022/07/11 19:16:08;;;;;;;2.70;1.50;;;23.50;99.90;;;;;;4916880;29;20218;-73
2022/07/11 19:18:35;;;;;;;1.35;1.20;;;23.30;99.90;;;;;;4916763;29;20210;-73
2022/07/11 19:21:03;;;;;;;2.13;1.58;;;23.30;99.90;;;;;;4922969;29;20213;-74
2022/07/11 19:23:29;;;;;;;2.22;1.88;;;23.20;99.90;;;;;;4932844;29;20230;-74
2022/07/11 19:25:56;;;;;;;2.08;1.40;;;23.10;99.90;;;;;;4917013;29;20248;-72
2022/07/11 19:28:25;;;;;;;1.70;1.30;;;23.20;99.90;;;;;;4916854;29;20221;-75
2022/07/11 19:30:52;;;;;;;2.28;1.48;;;23.10;99.90;;;;;;4916968;29;20209;-77
2022/07/11 19:33:19;;;;;;;1.33;1.20;;;23.10;99.90;;;;;;4916898;29;20597;-71
2022/07/11 19:35:45;;;;;;;1.70;1.30;;;23.00;99.90;;;;;;4916887;29;20237;-77
2022/07/11 19:38:12;;;;;;;1.70;1.20;;;23.00;99.90;;;;;;4916807;29;20221;-77
2022/07/11 19:40:39;;;;;;;1.70;1.38;;;23.00;99.90;;;;;;4916915;29;20220;-76
2022/07/11 19:43:06;;;;;;;2.10;1.42;;;23.00;99.90;;;;;;4916360;29;20236;-75
2022/07/11 19:45:34;;;;;;;2.20;1.60;;;22.90;99.90;;;;;;4916507;29;20233;-76
2022/07/11 19:48:01;;;;;;;2.30;1.70;;;22.80;99.90;;;;;;4920396;29;20219;-80
2022/07/11 19:50:28;;;;;;;2.13;1.80;;;22.80;99.90;;;;;;4935859;29;20213;-80
2022/07/11 19:52:55;;;;;;;2.00;1.30;;;22.80;99.90;;;;;;4935656;29;20228;-74
2022/07/11 19:58:09;;;;;;;2.25;1.50;;;22.70;99.90;;;;;;4899955;29;20629;-77
2022/07/11 20:00:39;;;;;;;2.17;1.60;;;22.60;99.90;;;;;;4918270;29;20671;-70
2022/07/11 20:03:06;;;;;;;2.75;1.80;;;22.50;99.90;;;;;;4910895;29;20238;-72
2022/07/11 20:05:33;;;;;;;2.40;1.50;;;22.50;99.90;;;;;;4922226;23;20248;-73
2022/07/11 20:08:00;;;;;;;1.80;1.52;;;22.50;99.90;;;;;;4912025;29;20220;-73
2022/07/11 20:10:27;;;;;;;1.70;1.60;;;22.40;99.90;;;;;;4911880;29;20216;-72
2022/07/11 20:12:54;;;;;;;3.60;1.52;;;22.30;99.90;;;;;;4916764;29;20225;-72
2022/07/11 20:15:21;;;;;;;1.77;1.52;;;22.20;99.90;;;;;;4907113;29;20213;-75
2022/07/11 20:17:49;;;;;;;2.67;1.80;;;22.10;99.90;;;;;;4913756;29;20217;-73
2022/07/11 20:20:16;;;;;;;2.30;1.85;;;22.10;99.90;;;;;;4907971;29;20207;-72
2022/07/11 20:22:44;;;;;;;1.90;1.60;;;22.00;99.90;;;;;;4916899;29;20256;-72
2022/07/11 20:25:12;;;;;;;2.17;1.63;;;21.80;99.90;;;;;;4905768;29;20247;-72
2022/07/11 20:27:40;;;;;;;2.63;1.40;;;21.60;99.90;;;;;;4912180;29;20285;-74
2022/07/11 20:30:08;;;;;;;2.97;1.58;;;21.40;99.90;;;;;;4910336;29;20590;-73
2022/07/11 20:32:35;;;;;;;2.22;1.52;;;21.40;99.90;;;;;;4911411;29;20229;-74
2022/07/11 20:35:04;;;;;;;2.35;1.55;;;21.30;99.90;;;;;;4911989;29;20305;-71
2022/07/11 20:37:31;;;;;;;2.05;1.60;;;21.40;99.90;;;;;;4905440;29;20216;-74
2022/07/11 20:39:58;;;;;;;1.67;1.20;;;21.40;99.90;;;;;;4905238;29;20222;-72
2022/07/11 20:42:25;;;;;;;1.80;1.50;;;21.40;99.90;;;;;;4916196;29;20221;-72
2022/07/11 20:44:52;;;;;;;2.15;1.40;;;21.30;99.90;;;;;;4910222;29;20214;-75
2022/07/11 20:47:19;;;;;;;2.50;1.75;;;21.30;99.90;;;;;;4907703;29;20242;-72
2022/07/11 20:49:46;;;;;;;2.53;1.80;;;21.20;99.90;;;;;;4907738;29;20217;-72
2022/07/11 20:52:14;;;;;;;2.17;1.60;;;21.30;99.90;;;;;;4910765;29;20236;-75
2022/07/11 20:54:40;;;;;;;2.13;1.63;;;21.10;99.90;;;;;;4899641;29;20305;-73
2022/07/11 20:57:08;;;;;;;2.38;1.83;;;21.10;99.90;;;;;;4899389;29;20565;-73
2022/07/11 20:59:35;;;;;;;2.22;1.70;;;21.10;99.90;;;;;;4899356;29;20323;-73
